Terminal Aerodrome Forecast
Issued by NWS Sterling, VA

Current Version | Previous Version | Graphics & Text | Print | Product List | Glossary On
Versions: 1 2 3 4 5 6 7 8 9 10 11 12 13 14 15 16 17 18 19 20 21 22 23
786
FTUS41 KLWX 191920 AAB
TAFDCA
TAF AMD
KDCA 191920Z 1919/2018 20014G23KT 4SM SHRA VCTS BKN040CB
      TEMPO 1919/1921 VRB50KT 1SM +TSRA OVC015CB
     FM192300 24006KT 5SM -SHRA OVC070
     FM200300 24007KT P6SM OVC080
     FM201300 27011KT P6SM SCT250=

USA.gov is the U.S. government's official web portal to all federal, state and local government web resources and services.